Time;durP1;ratioP1;P1;durP2;ratioP2;P2;SDS_P1;SDS_P2;PMS_P1;PMS_P2;Temp;Humidity;BMP_temperature;BMP_pressure;BME280_temperature;BME280_humidity;BME280_pressure;Samples;Min_cycle;Max_cycle;Signal;HPM_P1;HPM_P2
2022/07/25 00:01:54;;;;;;;287.13;270.90;;;;;;;23.80;59.29;96529.91;5053199;28;20206;-64
2022/07/25 00:04:20;;;;;;;258.25;243.60;;;;;;;23.80;59.00;96532.56;5052830;28;20318;-65
2022/07/25 00:06:45;;;;;;;344.20;323.88;;;;;;;23.81;59.00;96523.44;5052595;28;20269;-65
2022/07/25 00:09:11;;;;;;;381.27;359.10;;;;;;;23.77;58.85;96519.03;5052673;28;20188;-65
2022/07/25 00:11:36;;;;;;;405.92;382.00;;;;;;;23.77;58.44;96511.81;5051400;28;20272;-65
2022/07/25 00:14:03;;;;;;;401.42;377.75;;;;;;;23.68;58.25;96513.72;5052845;28;20251;-65
2022/07/25 00:16:28;;;;;;;289.02;272.75;;;;;;;23.71;59.02;96520.31;5052559;28;20620;-65
2022/07/25 00:18:54;;;;;;;161.68;152.57;;;;;;;23.71;58.80;96515.75;5052694;28;20213;-65
2022/07/25 00:21:19;;;;;;;160.70;151.75;;;;;;;23.79;58.89;96522.19;5052567;28;20209;-65
2022/07/25 00:23:44;;;;;;;257.30;243.02;;;;;;;23.76;58.99;96514.78;5052546;28;20224;-65
2022/07/25 00:26:10;;;;;;;220.00;207.30;;;;;;;23.72;59.27;96506.63;5052142;28;20196;-65
2022/07/25 00:28:35;;;;;;;125.47;118.28;;;;;;;23.64;60.15;96510.09;5052387;28;20181;-65
2022/07/25 00:31:01;;;;;;;100.43;94.70;;;;;;;23.53;59.92;96520.31;5053128;28;20193;-65
2022/07/25 00:33:26;;;;;;;93.00;87.78;;;;;;;23.23;61.34;96521.25;5052096;28;20228;-65
2022/07/25 00:35:51;;;;;;;102.53;96.82;;;;;;;23.31;61.21;96522.34;5057474;28;20209;-65
2022/07/25 00:38:17;;;;;;;101.78;95.97;;;;;;;23.44;60.57;96521.41;5052148;28;20213;-65
2022/07/25 00:40:42;;;;;;;103.80;97.97;;;;;;;23.27;60.68;96526.75;5052494;28;20232;-65
2022/07/25 00:43:08;;;;;;;113.07;106.75;;;;;;;23.29;60.99;96525.34;5052593;28;20201;-65
2022/07/25 00:45:33;;;;;;;117.20;110.70;;;;;;;23.34;60.57;96522.50;5051889;28;20277;-65
2022/07/25 00:47:59;;;;;;;159.93;151.27;;;;;;;23.33;60.77;96523.63;5052428;28;20186;-65
2022/07/25 00:50:24;;;;;;;213.68;202.95;;;;;;;23.26;61.23;96522.50;5052647;28;20644;-65
2022/07/25 00:52:50;;;;;;;226.73;215.35;;;;;;;23.24;60.82;96524.72;5048472;28;20252;-65
2022/07/25 00:55:16;;;;;;;249.15;236.77;;;;;;;23.07;61.54;96518.22;5045249;28;20236;-65
2022/07/25 00:57:41;;;;;;;224.82;213.73;;;;;;;23.06;61.43;96515.88;5052021;28;20193;-65
2022/07/25 01:00:11;;;;;;;244.52;232.45;;;;;;;23.11;61.22;96515.72;5052299;28;20246;-65
2022/07/25 01:02:36;;;;;;;238.40;226.57;;;;;;;22.95;61.58;96512.72;5052216;28;20202;-65
2022/07/25 01:05:03;;;;;;;227.15;215.90;;;;;;;22.94;61.83;96513.03;5051978;28;20193;-64
2022/07/25 01:07:29;;;;;;;231.40;219.98;;;;;;;22.99;61.67;96510.19;5052233;28;20651;-65
2022/07/25 01:09:55;;;;;;;206.80;196.52;;;;;;;23.13;60.79;96508.94;5052434;28;20197;-65
2022/07/25 01:12:21;;;;;;;182.93;173.57;;;;;;;23.22;60.19;96503.63;5036235;28;20196;-66
2022/07/25 01:14:46;;;;;;;177.45;168.07;;;;;;;23.11;60.55;96503.16;5051725;28;20182;-65
2022/07/25 01:17:12;;;;;;;225.63;214.32;;;;;;;23.25;59.99;96502.97;5050899;28;20685;-64
2022/07/25 01:19:38;;;;;;;269.33;256.30;;;;;;;23.10;60.79;96506.91;5052469;28;20214;-65
2022/07/25 01:22:03;;;;;;;325.90;309.95;;;;;;;22.94;62.26;96505.00;5052502;28;20285;-68
2022/07/25 01:24:29;;;;;;;307.75;292.35;;;;;;;22.95;62.48;96504.72;5054359;28;20196;-67
2022/07/25 01:26:54;;;;;;;314.25;298.73;;;;;;;23.04;61.79;96497.47;5055683;28;20312;-65
2022/07/25 01:29:20;;;;;;;286.10;272.10;;;;;;;22.92;62.29;96491.94;5056017;28;20186;-65
2022/07/25 01:31:45;;;;;;;288.42;274.02;;;;;;;22.99;61.82;96489.59;5055991;28;20192;-64
2022/07/25 01:34:11;;;;;;;279.50;265.77;;;;;;;22.90;62.25;96490.69;5055853;28;20186;-65
2022/07/25 01:36:36;;;;;;;298.55;283.98;;;;;;;22.89;61.92;96484.56;5056114;28;20181;-65
2022/07/25 01:39:02;;;;;;;280.58;266.75;;;;;;;22.89;62.11;96487.25;5055788;28;20627;-65
2022/07/25 01:41:27;;;;;;;226.70;215.63;;;;;;;22.87;62.44;96486.75;5055700;28;20296;-65
2022/07/25 01:43:52;;;;;;;159.65;151.35;;;;;;;22.86;62.32;96485.19;5055460;28;20624;-65
2022/07/25 01:46:18;;;;;;;118.53;111.95;;;;;;;22.89;62.12;96481.09;5055275;28;20182;-65
2022/07/25 01:48:43;;;;;;;79.05;74.53;;;;;;;22.97;61.98;96477.63;5055843;28;20654;-65
2022/07/25 01:51:11;;;;;;;84.78;80.00;;;;;;;22.86;62.61;96482.50;5055750;28;20189;-65
2022/07/25 01:53:37;;;;;;;81.68;77.15;;;;;;;22.81;62.43;96477.31;5048473;28;20185;-65
2022/07/25 01:56:07;;;;;;;91.97;86.70;;;;;;;22.80;62.78;96476.53;5055728;28;20186;-65
2022/07/25 01:58:32;;;;;;;88.82;83.82;;;;;;;22.89;62.73;96476.53;5055545;28;20261;-65
2022/07/25 02:00:58;;;;;;;103.10;97.45;;;;;;;22.91;62.72;96468.19;5055310;28;20190;-65
2022/07/25 02:03:29;;;;;;;137.40;129.73;;;;;;;22.97;62.13;96474.97;5054427;28;20186;-65
2022/07/25 02:05:55;;;;;;;144.27;136.40;;;;;;;22.87;62.67;96476.06;5055773;28;20675;-65
2022/07/25 02:08:21;;;;;;;159.57;150.90;;;;;;;22.79;62.97;96471.50;5055129;28;20261;-66
2022/07/25 02:10:46;;;;;;;142.45;134.52;;;;;;;22.93;63.04;96468.69;5055410;28;20309;-65
2022/07/25 02:13:11;;;;;;;141.93;134.02;;;;;;;22.71;64.31;96464.22;5055483;28;20192;-65
2022/07/25 02:15:37;;;;;;;136.60;128.80;;;;;;;22.70;64.98;96466.09;5055028;28;20185;-65
2022/07/25 02:18:02;;;;;;;196.65;186.07;;;;;;;22.78;64.43;96465.38;5055169;28;20177;-64
2022/07/25 02:20:28;;;;;;;289.83;273.75;;;;;;;22.55;65.78;96463.88;5055261;28;20174;-65
2022/07/25 02:22:53;;;;;;;438.73;413.35;;;;;;;22.49;66.34;96457.09;5054999;28;20240;-65
2022/07/25 02:25:19;;;;;;;461.80;434.63;;;;;;;22.53;66.52;96460.72;5054566;28;20186;-65
2022/07/25 02:27:44;;;;;;;270.55;254.85;;;;;;;22.58;66.97;96449.09;5054905;28;20197;-64
2022/07/25 02:30:10;;;;;;;186.57;175.82;;;;;;;22.51;67.64;96457.59;5054882;28;20545;-65
2022/07/25 02:32:35;;;;;;;184.75;174.38;;;;;;;22.54;67.69;96454.28;5054774;28;20213;-65
2022/07/25 02:35:00;;;;;;;241.60;227.68;;;;;;;22.38;68.22;96453.13;5055758;28;20662;-65
2022/07/25 02:37:26;;;;;;;270.42;255.40;;;;;;;22.30;68.87;96453.88;5054901;28;20217;-65
2022/07/25 02:39:51;;;;;;;328.25;310.17;;;;;;;22.23;69.33;96450.91;5054369;28;20184;-66
2022/07/25 02:42:17;;;;;;;538.22;506.45;;;;;;;22.19;70.62;96447.25;5053049;28;20228;-65
2022/07/25 02:44:42;;;;;;;617.55;578.80;;;;;;;22.33;70.06;96450.63;5054764;28;20263;-65
2022/07/25 02:47:07;;;;;;;565.67;530.65;;;;;;;22.31;69.73;96447.44;5054353;28;20281;-64
2022/07/25 02:49:33;;;;;;;565.08;530.58;;;;;;;22.25;70.08;96449.47;5054618;28;20185;-65
2022/07/25 02:51:58;;;;;;;609.15;571.63;;;;;;;22.19;69.65;96445.38;5054219;28;20186;-65
2022/07/25 02:54:23;;;;;;;688.78;644.58;;;;;;;22.10;69.69;96443.78;5050200;28;20186;-65
2022/07/25 02:56:49;;;;;;;710.85;664.60;;;;;;;22.15;68.63;96435.63;5053341;28;20194;-65
2022/07/25 02:59:14;;;;;;;716.83;669.70;;;;;;;22.02;69.32;96431.94;5054277;28;20271;-65
2022/07/25 03:01:39;;;;;;;729.38;681.20;;;;;;;21.97;69.22;96434.75;5054607;28;20559;-65
2022/07/25 03:04:05;;;;;;;743.20;693.95;;;;;;;21.87;69.53;96443.81;5054241;28;20535;-65
2022/07/25 03:06:30;;;;;;;754.30;704.13;;;;;;;22.01;68.92;96441.06;5054113;28;20273;-65
2022/07/25 03:08:56;;;;;;;724.40;676.92;;;;;;;22.10;68.78;96436.56;5054356;28;20514;-65
2022/07/25 03:11:21;;;;;;;707.55;661.00;;;;;;;22.08;68.79;96440.63;5054266;28;20195;-65
2022/07/25 03:13:47;;;;;;;677.00;634.15;;;;;;;22.07;68.63;96434.47;5052981;28;20189;-65
2022/07/25 03:16:12;;;;;;;639.22;599.25;;;;;;;22.05;68.65;96438.56;5054259;28;20698;-66
2022/07/25 03:18:37;;;;;;;676.97;633.15;;;;;;;21.92;68.73;96435.66;5054071;28;20686;-65
2022/07/25 03:21:03;;;;;;;733.90;684.45;;;;;;;21.98;68.42;96429.13;5053794;28;20190;-65
2022/07/25 03:23:29;;;;;;;743.13;692.88;;;;;;;21.99;67.83;96432.59;5053697;28;20216;-65
2022/07/25 03:25:55;;;;;;;671.33;627.97;;;;;;;21.91;67.58;96434.06;5053791;28;20575;-65
2022/07/25 03:28:21;;;;;;;579.13;542.90;;;;;;;21.91;67.08;96428.75;5053522;28;20181;-65
2022/07/25 03:30:46;;;;;;;525.95;494.20;;;;;;;22.10;66.14;96425.09;5053744;28;20186;-65
2022/07/25 03:33:12;;;;;;;496.02;466.15;;;;;;;22.01;66.06;96419.72;5053762;28;20650;-66
2022/07/25 03:35:37;;;;;;;473.98;445.92;;;;;;;21.92;66.91;96416.97;5053838;28;20190;-68
2022/07/25 03:38:02;;;;;;;452.48;425.98;;;;;;;21.96;66.53;96415.28;5053458;28;20214;-66
2022/07/25 03:40:28;;;;;;;437.10;411.73;;;;;;;21.95;66.49;96404.94;5051905;28;20197;-65
2022/07/25 03:42:53;;;;;;;404.08;380.80;;;;;;;22.06;66.02;96406.25;5053897;28;20225;-65
2022/07/25 03:45:19;;;;;;;427.65;402.92;;;;;;;22.05;66.01;96415.34;5053089;28;20194;-65
2022/07/25 03:47:44;;;;;;;416.25;392.45;;;;;;;21.94;66.66;96412.16;5052715;28;20654;-65
2022/07/25 03:50:10;;;;;;;424.05;399.45;;;;;;;21.90;66.49;96405.81;5053148;28;20189;-65
2022/07/25 03:52:37;;;;;;;426.58;401.88;;;;;;;21.96;66.11;96403.81;5052187;28;20273;-65
2022/07/25 03:55:04;;;;;;;419.17;395.05;;;;;;;22.04;66.11;96388.94;5053475;28;20628;-65
2022/07/25 03:57:30;;;;;;;425.02;400.67;;;;;;;22.00;66.12;96393.34;5053281;28;20312;-67
2022/07/25 03:59:55;;;;;;;434.30;409.23;;;;;;;21.99;65.94;96400.56;5053031;28;20281;-65
2022/07/25 04:02:20;;;;;;;482.45;454.67;;;;;;;22.09;65.09;96391.47;5052818;28;20205;-66
2022/07/25 04:04:46;;;;;;;461.70;434.92;;;;;;;22.15;64.97;96396.38;5053175;28;20189;-65
2022/07/25 04:07:11;;;;;;;393.98;371.98;;;;;;;22.23;64.96;96390.28;5053277;28;20178;-65
2022/07/25 04:09:36;;;;;;;282.33;266.77;;;;;;;22.42;64.02;96386.53;5053028;28;20189;-65
2022/07/25 04:12:02;;;;;;;215.07;203.00;;;;;;;22.46;63.76;96385.59;5053319;28;20596;-66
2022/07/25 04:14:27;;;;;;;151.15;142.63;;;;;;;22.40;64.13;96386.84;5052973;28;20197;-66
2022/07/25 04:16:52;;;;;;;120.20;113.50;;;;;;;22.62;63.60;96386.72;5052998;28;20280;-65
2022/07/25 04:19:18;;;;;;;166.40;157.25;;;;;;;22.66;62.88;96379.66;5052998;28;20653;-65
2022/07/25 04:21:43;;;;;;;237.77;224.70;;;;;;;22.61;63.38;96379.81;5052664;28;20577;-67
2022/07/25 04:24:09;;;;;;;280.05;264.55;;;;;;;22.85;62.54;96381.28;5052525;28;20212;-65
2022/07/25 04:26:34;;;;;;;214.65;202.98;;;;;;;22.89;62.31;96383.00;5052563;28;20212;-65
2022/07/25 04:29:02;;;;;;;152.20;143.98;;;;;;;22.96;61.90;96379.84;5052895;28;20610;-65
2022/07/25 04:31:27;;;;;;;140.05;132.30;;;;;;;23.03;61.56;96375.59;5051489;28;20190;-65
2022/07/25 04:33:53;;;;;;;107.25;101.13;;;;;;;23.03;61.72;96374.78;5050946;28;20186;-66
2022/07/25 04:36:18;;;;;;;80.32;75.65;;;;;;;22.99;61.73;96371.97;5052816;28;20192;-65
2022/07/25 04:38:44;;;;;;;72.57;68.47;;;;;;;23.26;60.84;96373.50;5052618;28;20228;-65
2022/07/25 04:41:09;;;;;;;82.72;78.10;;;;;;;23.28;60.77;96383.91;5052383;28;20252;-66
2022/07/25 04:43:35;;;;;;;112.80;105.85;;;;;;;23.56;60.19;96377.09;5052348;28;20636;-68
2022/07/25 04:46:00;;;;;;;122.40;115.70;;;;;;;23.42;60.29;96373.78;5052133;28;20190;-66
2022/07/25 04:48:26;;;;;;;119.80;113.45;;;;;;;23.36;60.57;96375.84;5052696;28;20185;-66
2022/07/25 04:50:51;;;;;;;110.03;104.05;;;;;;;23.37;60.83;96377.41;5052878;28;20602;-66
2022/07/25 04:53:17;;;;;;;104.63;98.93;;;;;;;23.56;60.14;96375.22;5051513;28;20194;-67
2022/07/25 04:55:42;;;;;;;87.95;83.03;;;;;;;23.84;59.28;96378.25;5052489;28;20220;-65
2022/07/25 04:58:07;;;;;;;59.40;55.75;;;;;;;23.97;57.61;96379.13;5053672;28;20270;-66
2022/07/25 05:00:33;;;;;;;67.25;63.30;;;;;;;24.15;57.85;96383.31;5056707;28;20220;-66
2022/07/25 05:02:58;;;;;;;60.72;57.03;;;;;;;24.41;56.70;96377.81;5056413;28;20678;-66
2022/07/25 05:05:23;;;;;;;138.77;131.43;;;;;;;24.66;55.94;96374.19;5056456;28;20189;-66
2022/07/25 05:07:54;;;;;;;148.55;140.25;;;;;;;24.87;55.61;96371.50;5056730;28;20228;-63
2022/07/25 05:10:19;;;;;;;123.38;116.82;;;;;;;25.26;54.31;96372.91;5056289;28;20174;-63
2022/07/25 05:12:44;;;;;;;88.57;83.20;;;;;;;25.37;54.57;96371.38;5056459;28;20280;-63
2022/07/25 05:15:11;;;;;;;57.22;53.90;;;;;;;25.73;53.59;96373.41;5056129;28;20184;-63
2022/07/25 05:17:36;;;;;;;99.43;93.78;;;;;;;25.82;52.96;96378.66;5056316;28;20186;-63
2022/07/25 05:20:02;;;;;;;308.42;291.13;;;;;;;25.86;53.46;96371.50;5056630;28;20186;-64
2022/07/25 05:22:28;;;;;;;479.60;450.83;;;;;;;26.10;52.82;96374.19;5056043;28;20285;-64
2022/07/25 05:24:53;;;;;;;417.10;393.05;;;;;;;26.29;52.29;96377.16;5055980;28;20273;-65
2022/07/25 05:27:19;;;;;;;433.92;409.45;;;;;;;26.61;51.48;96369.25;5055773;28;20186;-65
2022/07/25 05:29:44;;;;;;;669.80;624.83;;;;;;;26.72;51.42;96371.13;5055592;28;20284;-65
2022/07/25 05:32:09;;;;;;;809.22;751.30;;;;;;;26.69;51.23;96362.97;5055546;28;20221;-65
2022/07/25 05:34:35;;;;;;;789.17;735.28;;;;;;;27.07;50.47;96370.59;5066519;28;20189;-65
2022/07/25 05:37:00;;;;;;;640.63;598.35;;;;;;;27.38;49.34;96359.91;5056195;28;20789;-65
2022/07/25 05:39:25;;;;;;;621.70;580.20;;;;;;;27.07;50.10;96360.63;5056351;28;20661;-65
2022/07/25 05:41:51;;;;;;;554.97;519.05;;;;;;;27.44;49.79;96365.81;5055915;28;20234;-66
2022/07/25 05:44:16;;;;;;;527.05;494.40;;;;;;;27.53;49.23;96363.78;5055542;28;20190;-66
2022/07/25 05:46:41;;;;;;;564.55;531.20;;;;;;;27.51;49.65;96358.75;5055717;28;20232;-62
2022/07/25 05:49:07;;;;;;;565.17;533.22;;;;;;;27.99;47.72;96360.31;5055784;28;20182;-62
2022/07/25 05:51:32;;;;;;;499.48;472.05;;;;;;;27.61;48.59;96355.53;5054653;28;20197;-63
2022/07/25 05:53:57;;;;;;;424.73;401.58;;;;;;;27.79;48.33;96350.59;5055306;28;20538;-63
2022/07/25 05:56:23;;;;;;;416.27;393.85;;;;;;;28.16;48.00;96353.03;5055053;28;20239;-63
2022/07/25 05:58:48;;;;;;;344.20;325.70;;;;;;;27.91;48.07;96349.72;5055770;28;20197;-64
2022/07/25 06:01:15;;;;;;;283.20;268.08;;;;;;;28.08;47.54;96355.53;5055566;28;20268;-65
2022/07/25 06:03:41;;;;;;;215.30;203.85;;;;;;;28.24;46.65;96354.75;5055488;28;20193;-65
2022/07/25 06:06:07;;;;;;;233.35;220.77;;;;;;;27.99;47.47;96340.66;5055127;28;20268;-65
2022/07/25 06:08:36;;;;;;;285.48;270.83;;;;;;;28.03;46.85;96345.00;5055397;28;20273;-66
2022/07/25 06:11:03;;;;;;;290.58;274.98;;;;;;;28.14;47.21;96341.81;5054099;28;20214;-64
2022/07/25 06:13:29;;;;;;;330.95;314.23;;;;;;;28.29;46.36;96341.78;5054746;28;20189;-64
2022/07/25 06:15:55;;;;;;;262.75;249.40;;;;;;;28.24;46.01;96341.28;5054065;28;20200;-65
2022/07/25 06:18:21;;;;;;;249.18;236.40;;;;;;;28.42;46.57;96339.75;5054109;28;20178;-64
2022/07/25 06:20:46;;;;;;;228.55;216.35;;;;;;;28.56;45.63;96336.56;5055141;28;20542;-64
2022/07/25 06:23:11;;;;;;;238.73;226.60;;;;;;;28.78;45.66;96335.91;5054594;28;20214;-65
2022/07/25 06:25:37;;;;;;;253.50;240.75;;;;;;;28.57;45.39;96330.06;5054939;28;20190;-65
2022/07/25 06:28:02;;;;;;;231.05;219.10;;;;;;;28.54;45.60;96323.44;5054295;28;20182;-65
2022/07/25 06:30:28;;;;;;;229.48;217.57;;;;;;;28.77;45.74;96324.34;5054449;28;20193;-65
2022/07/25 06:32:54;;;;;;;282.00;267.45;;;;;;;28.73;45.48;96328.09;5056631;28;20193;-65
2022/07/25 06:35:19;;;;;;;302.00;286.65;;;;;;;28.91;45.66;96326.53;5055009;28;20190;-65
2022/07/25 06:37:45;;;;;;;327.42;310.33;;;;;;;29.07;46.22;96327.25;5054971;28;20349;-66
2022/07/25 06:40:11;;;;;;;367.35;347.88;;;;;;;29.53;44.80;96320.00;5054493;28;20190;-66
2022/07/25 06:42:41;;;;;;;419.17;397.60;;;;;;;29.55;44.28;96323.13;5054472;28;20242;-65
2022/07/25 06:45:10;;;;;;;387.92;368.33;;;;;;;29.46;44.50;96327.19;5054648;28;20187;-66
2022/07/25 06:47:37;;;;;;;357.30;339.30;;;;;;;29.54;43.96;96324.25;5054616;28;20190;-66
2022/07/25 06:50:05;;;;;;;413.02;391.73;;;;;;;29.49;44.52;96315.66;5054424;28;20339;-66
2022/07/25 06:52:30;;;;;;;387.00;366.77;;;;;;;29.56;44.36;96326.59;5053410;28;20186;-66
2022/07/25 06:54:55;;;;;;;411.17;389.50;;;;;;;29.56;44.09;96326.59;5054501;28;20182;-68
2022/07/25 06:57:21;;;;;;;386.10;365.92;;;;;;;29.62;43.91;96323.25;5054241;28;20182;-66
2022/07/25 06:59:46;;;;;;;430.45;408.15;;;;;;;29.54;44.88;96318.84;5053036;28;20208;-66
2022/07/25 07:02:11;;;;;;;381.17;361.73;;;;;;;29.71;43.72;96326.47;5051717;28;20285;-66
2022/07/25 07:04:37;;;;;;;408.38;387.50;;;;;;;29.64;44.30;96326.38;5053923;28;20272;-67
2022/07/25 07:07:03;;;;;;;430.23;407.98;;;;;;;29.88;44.59;96335.22;5054028;28;20224;-66
2022/07/25 07:09:28;;;;;;;443.23;420.20;;;;;;;30.00;44.31;96330.44;5053580;28;20268;-67
2022/07/25 07:11:54;;;;;;;439.85;416.85;;;;;;;29.97;44.52;96328.47;5053612;28;20190;-66
2022/07/25 07:14:19;;;;;;;308.42;291.58;;;;;;;29.71;45.32;96331.09;5054152;28;20209;-67
2022/07/25 07:16:44;;;;;;;392.65;371.17;;;;;;;29.82;45.64;96334.75;5054013;28;20182;-67
2022/07/25 07:19:10;;;;;;;469.48;442.88;;;;;;;29.82;46.21;96332.03;5054289;28;20186;-66
2022/07/25 07:21:36;;;;;;;472.45;445.48;;;;;;;29.82;45.84;96334.75;5052701;28;20249;-66
2022/07/25 07:24:01;;;;;;;444.98;420.13;;;;;;;30.04;45.50;96335.91;5053795;28;20174;-66
2022/07/25 07:26:27;;;;;;;406.40;383.98;;;;;;;30.20;45.64;96325.72;5053172;28;20197;-67
2022/07/25 07:28:53;;;;;;;389.92;369.08;;;;;;;30.24;44.37;96323.84;5052730;28;20185;-67
2022/07/25 07:31:19;;;;;;;394.23;373.83;;;;;;;30.49;43.45;96324.22;5053515;28;20248;-67
2022/07/25 07:33:44;;;;;;;306.77;290.95;;;;;;;30.66;42.84;96326.38;5053481;28;20623;-67
2022/07/25 07:36:10;;;;;;;257.13;243.82;;;;;;;30.67;42.68;96324.44;5053806;28;20181;-67
2022/07/25 07:38:35;;;;;;;259.30;245.93;;;;;;;30.79;42.89;96325.00;5053496;28;20248;-67
2022/07/25 07:41:01;;;;;;;266.35;252.68;;;;;;;30.84;42.29;96324.66;5053154;28;20218;-67
2022/07/25 07:43:26;;;;;;;214.18;203.05;;;;;;;30.86;42.13;96319.69;5052905;28;20186;-67
2022/07/25 07:45:51;;;;;;;199.27;188.85;;;;;;;30.89;41.77;96326.25;5051218;28;20190;-67
2022/07/25 07:48:17;;;;;;;202.70;192.27;;;;;;;31.04;41.74;96322.59;5053530;28;20178;-67
2022/07/25 07:50:42;;;;;;;322.73;306.05;;;;;;;30.83;41.88;96309.56;5053808;28;20634;-67
2022/07/25 07:53:07;;;;;;;336.55;318.90;;;;;;;30.98;41.51;96310.53;5051920;28;20189;-67
2022/07/25 07:55:47;;;;;;;309.38;293.30;;;;;;;31.19;41.61;96310.78;5053188;28;20285;-67
2022/07/25 07:58:15;;;;;;;281.92;267.00;;;;;;;31.35;41.16;96311.31;5053295;28;20206;-68
2022/07/25 08:00:43;;;;;;;468.00;441.17;;;;;;;31.21;41.58;96311.16;5051976;28;20532;-67
2022/07/25 08:03:08;;;;;;;552.05;518.67;;;;;;;31.31;41.23;96315.16;5053058;28;20700;-67
2022/07/25 08:05:40;;;;;;;659.00;615.20;;;;;;;31.35;40.70;96314.03;5052219;28;20186;-68
2022/07/25 08:08:08;;;;;;;750.28;704.05;;;;;;;31.34;40.42;96315.19;5035482;28;20184;-67
2022/07/25 08:10:36;;;;;;;769.85;721.80;;;;;;;31.10;40.88;96320.34;5053081;28;20186;-67
2022/07/25 08:13:12;;;;;;;739.65;693.63;;;;;;;31.35;40.66;96305.91;5052396;28;20548;-67
2022/07/25 08:15:37;;;;;;;764.63;716.97;;;;;;;31.25;40.53;96303.88;5052972;28;20170;-68
2022/07/25 08:18:03;;;;;;;754.60;707.28;;;;;;;31.62;40.30;96303.06;5052870;28;20181;-67
2022/07/25 08:20:29;;;;;;;783.25;735.15;;;;;;;31.61;40.47;96305.00;5052949;28;20505;-67
2022/07/25 08:22:54;;;;;;;812.63;763.08;;;;;;;31.37;40.38;96305.53;5052499;28;20704;-67
2022/07/25 08:25:20;;;;;;;787.50;739.30;;;;;;;31.71;40.28;96314.41;5052283;28;20177;-68
2022/07/25 08:27:47;;;;;;;715.25;674.08;;;;;;;31.76;39.67;96311.34;5053061;28;20269;-68
2022/07/25 08:30:13;;;;;;;649.25;611.95;;;;;;;31.89;39.37;96311.81;5052672;28;20174;-67
2022/07/25 08:32:50;;;;;;;662.22;623.75;;;;;;;32.04;39.42;96311.56;5051335;28;20209;-67
2022/07/25 08:35:16;;;;;;;609.75;574.65;;;;;;;31.92;39.68;96311.06;5052374;28;20177;-68
2022/07/25 08:37:42;;;;;;;531.63;501.58;;;;;;;31.88;39.22;96315.69;5052567;28;20692;-68
2022/07/25 08:40:08;;;;;;;478.30;451.58;;;;;;;31.94;39.30;96314.94;5052316;28;20240;-67
2022/07/25 08:42:34;;;;;;;499.92;471.98;;;;;;;32.12;39.24;96318.59;5051788;28;20774;-67
2022/07/25 08:45:05;;;;;;;440.85;416.27;;;;;;;32.27;38.65;96316.75;5052053;28;20194;-67
2022/07/25 08:47:31;;;;;;;385.15;364.48;;;;;;;32.49;38.01;96321.13;5051602;28;20182;-67
2022/07/25 08:49:57;;;;;;;340.30;322.35;;;;;;;32.44;38.26;96310.63;5052824;28;20328;-68
2022/07/25 08:52:23;;;;;;;346.60;328.40;;;;;;;32.26;38.75;96315.22;5050785;28;20535;-67
2022/07/25 08:54:50;;;;;;;334.08;316.65;;;;;;;32.25;38.70;96315.56;5052386;28;20190;-67
2022/07/25 08:57:16;;;;;;;339.02;321.25;;;;;;;32.26;38.67;96311.72;5052565;28;20181;-67
2022/07/25 08:59:42;;;;;;;279.77;265.30;;;;;;;32.45;38.37;96314.13;5053030;28;20189;-67
2022/07/25 09:02:12;;;;;;;251.90;238.95;;;;;;;32.63;38.03;96317.72;5051656;28;20208;-68
2022/07/25 09:04:38;;;;;;;126.03;119.30;;;;;;;32.59;37.43;96311.50;5052746;28;20185;-68
2022/07/25 09:07:03;;;;;;;97.43;92.25;;;;;;;32.79;37.37;96304.63;5051522;28;20190;-67
2022/07/25 09:09:31;;;;;;;175.77;167.00;;;;;;;32.69;36.48;96302.66;5052570;28;20516;-68
2022/07/25 09:11:57;;;;;;;233.27;221.35;;;;;;;32.90;36.25;96301.94;5052509;28;20190;-67
2022/07/25 09:14:22;;;;;;;308.88;292.60;;;;;;;32.83;36.22;96294.56;5052319;28;20178;-68
2022/07/25 09:16:48;;;;;;;171.32;162.38;;;;;;;32.91;35.20;96288.00;5052207;28;20235;-67
2022/07/25 09:19:17;;;;;;;84.82;80.13;;;;;;;32.87;34.42;96289.16;5052368;28;20182;-67
2022/07/25 09:21:44;;;;;;;81.13;76.70;;;;;;;33.20;34.19;96288.09;5052288;28;20205;-67
2022/07/25 09:24:21;;;;;;;94.00;88.75;;;;;;;33.40;33.51;96295.50;5052040;28;20207;-67
2022/07/25 09:26:52;;;;;;;50.38;47.50;;;;;;;33.15;33.62;96291.16;5052294;28;20197;-67
2022/07/25 09:29:21;;;;;;;54.10;50.88;;;;;;;33.18;34.00;96288.47;5052266;28;20182;-67
2022/07/25 09:31:47;;;;;;;39.45;37.20;;;;;;;33.24;33.20;96281.50;5060140;28;20198;-68
2022/07/25 09:34:35;;;;;;;50.80;47.90;;;;;;;33.54;32.73;96278.44;5051583;28;20190;-67
2022/07/25 09:37:07;;;;;;;52.83;49.72;;;;;;;33.20;33.51;96269.84;5052499;28;20272;-67
2022/07/25 09:39:44;;;;;;;66.47;62.72;;;;;;;33.24;32.97;96286.94;5052373;28;20243;-67
2022/07/25 09:42:35;;;;;;;67.50;63.72;;;;;;;32.97;33.13;96289.19;5051477;28;20222;-68
2022/07/25 09:45:13;;;;;;;54.65;51.58;;;;;;;32.53;32.89;96286.66;5052973;28;20556;-68
2022/07/25 09:47:54;;;;;;;55.40;52.33;;;;;;;32.63;33.25;96289.78;5055560;28;20173;-67
2022/07/25 09:50:21;;;;;;;55.13;51.97;;;;;;;32.60;32.60;96288.63;5055809;28;20181;-67
2022/07/25 09:52:49;;;;;;;54.55;51.25;;;;;;;32.99;32.22;96283.38;5054839;28;20194;-67
2022/07/25 09:55:15;;;;;;;54.67;51.63;;;;;;;32.99;31.97;96281.41;5055802;28;20288;-67
2022/07/25 09:57:41;;;;;;;59.67;56.25;;;;;;;32.80;32.78;96286.41;5055722;28;20272;-68
2022/07/25 10:00:08;;;;;;;61.40;58.00;;;;;;;32.73;32.94;96284.44;5054239;28;20266;-66
2022/07/25 10:02:44;;;;;;;64.07;60.22;;;;;;;32.89;32.73;96286.81;5055424;28;20237;-66
2022/07/25 10:05:31;;;;;;;64.55;61.03;;;;;;;32.51;32.99;96283.53;5055461;28;20173;-66
2022/07/25 10:07:57;;;;;;;54.83;51.72;;;;;;;32.44;33.04;96269.16;5054950;28;20255;-67
2022/07/25 10:10:29;;;;;;;50.45;47.50;;;;;;;32.43;33.34;96273.03;5055356;28;20705;-67
2022/07/25 10:12:59;;;;;;;51.92;49.03;;;;;;;32.60;33.40;96266.91;5054964;28;20528;-66
2022/07/25 10:15:25;;;;;;;54.28;51.15;;;;;;;32.90;33.05;96266.66;5055851;28;20181;-66
2022/07/25 10:18:01;;;;;;;67.65;63.83;;;;;;;32.61;34.11;96244.81;5055563;28;20193;-66
2022/07/25 10:20:28;;;;;;;69.35;65.53;;;;;;;32.92;33.70;96251.53;5055207;28;20174;-67
2022/07/25 10:22:53;;;;;;;73.13;69.05;;;;;;;32.99;33.22;96256.97;5054625;28;20256;-67
2022/07/25 10:25:20;;;;;;;78.90;74.40;;;;;;;33.15;33.32;96259.34;5055264;28;20589;-66
2022/07/25 10:27:47;;;;;;;77.85;73.60;;;;;;;32.98;33.17;96249.22;5054956;28;20186;-67
2022/07/25 10:30:26;;;;;;;85.93;80.60;;;;;;;33.14;33.17;96249.63;5054791;28;20178;-66
2022/07/25 10:33:01;;;;;;;82.63;77.75;;;;;;;33.22;32.98;96236.84;5053940;28;20170;-67
2022/07/25 10:35:27;;;;;;;92.40;87.15;;;;;;;33.37;33.15;96243.88;5054892;28;20189;-66
2022/07/25 10:37:55;;;;;;;90.15;85.15;;;;;;;33.34;32.89;96237.25;5055117;28;20174;-67
2022/07/25 10:40:28;;;;;;;98.80;93.47;;;;;;;33.62;32.50;96244.63;5054575;28;20181;-67
2022/07/25 10:43:04;;;;;;;103.55;98.05;;;;;;;33.28;33.46;96246.94;5054805;28;20244;-67
2022/07/25 10:45:38;;;;;;;110.05;104.18;;;;;;;33.15;33.40;96244.97;5054325;28;20205;-67
2022/07/25 10:48:09;;;;;;;119.00;112.70;;;;;;;33.23;33.30;96246.56;5054077;28;20173;-67
2022/07/25 10:50:45;;;;;;;120.50;113.55;;;;;;;33.28;32.50;96243.47;5053748;28;20186;-67
2022/07/25 10:53:11;;;;;;;122.72;116.18;;;;;;;32.74;33.76;96231.69;5053487;28;20263;-67
2022/07/25 10:55:36;;;;;;;123.43;116.72;;;;;;;33.16;33.06;96230.25;5054744;28;20185;-67
2022/07/25 10:58:05;;;;;;;121.32;114.82;;;;;;;33.48;32.72;96224.84;5054247;28;20186;-67
2022/07/25 11:00:32;;;;;;;117.75;111.53;;;;;;;33.46;32.54;96222.50;5054663;28;20174;-67
2022/07/25 11:02:57;;;;;;;109.35;103.40;;;;;;;33.09;32.93;96213.91;5054380;28;20300;-67